createdAt,value
2023-05-20T00:00:15.877Z,99772.25
2023-05-20T00:05:18.798Z,99765.72
2023-05-20T00:10:23.070Z,99772.25
2023-05-20T00:15:26.102Z,99761.38
2023-05-20T00:20:29.166Z,99752.66
2023-05-20T00:25:33.734Z,99740.00
2023-05-20T00:30:36.758Z,99740.38
2023-05-20T00:35:39.711Z,99744.41
2023-05-20T00:40:44.028Z,99743.00
2023-05-20T00:45:47.469Z,99745.63
2023-05-20T00:50:51.305Z,99742.38
2023-05-20T00:55:56.214Z,99754.75
2023-05-20T01:00:59.593Z,99748.50
2023-05-20T01:06:03.232Z,99757.78
2023-05-20T01:11:12.295Z,99756.56
2023-05-20T01:16:18.137Z,99755.78
2023-05-20T01:21:22.039Z,99749.91
2023-05-20T01:26:27.453Z,99741.22
2023-05-20T01:31:36.536Z,99745.06
2023-05-20T01:36:41.677Z,99747.69
2023-05-20T01:41:47.554Z,99759.63
2023-05-20T01:46:51.201Z,99752.13
2023-05-20T01:51:54.268Z,99754.94
2023-05-20T01:56:58.696Z,99744.03
2023-05-20T02:02:01.778Z,99740.97
2023-05-20T02:07:05.000Z,99745.16
2023-05-20T02:12:16.199Z,99739.91
2023-05-20T02:17:19.329Z,99742.72
2023-05-20T02:22:22.331Z,99738.06
2023-05-20T02:27:26.708Z,99741.00
2023-05-20T02:32:29.722Z,99741.22
2023-05-20T02:37:32.718Z,99731.75
2023-05-20T02:42:37.346Z,99737.16
2023-05-20T02:47:40.338Z,99710.16
2023-05-20T02:52:43.422Z,99719.81
2023-05-20T02:57:47.770Z,99701.47
2023-05-20T03:02:50.725Z,99689.44
2023-05-20T03:07:53.868Z,99698.13
2023-05-20T03:12:58.165Z,99703.78
2023-05-20T03:18:01.094Z,99698.75
2023-05-20T03:23:04.460Z,99696.34
2023-05-20T03:28:08.736Z,99710.09
2023-05-20T03:33:14.587Z,99698.59
2023-05-20T03:38:17.671Z,99710.81
2023-05-20T03:43:22.097Z,99719.13
2023-05-20T03:48:25.044Z,99723.38
2023-05-20T03:53:28.010Z,99720.41
2023-05-20T03:58:32.873Z,99717.78
2023-05-20T04:03:35.973Z,99724.66
2023-05-20T04:08:39.996Z,99714.53
2023-05-20T04:13:44.603Z,99719.78
2023-05-20T04:18:48.330Z,99718.59
2023-05-20T04:23:51.905Z,99725.47
2023-05-20T04:28:59.038Z,99723.03
2023-05-20T04:34:03.155Z,99724.84
2023-05-20T04:39:07.973Z,99732.94
2023-05-20T04:44:13.291Z,99722.84
2023-05-20T04:49:16.331Z,99726.47
2023-05-20T04:54:20.345Z,99724.22
2023-05-20T04:59:25.057Z,99721.38
2023-05-20T05:04:28.385Z,99714.50
2023-05-20T05:09:33.081Z,99714.94
2023-05-20T05:14:39.492Z,99714.06
2023-05-20T05:19:42.526Z,99707.22
2023-05-20T05:24:45.587Z,99708.25
2023-05-20T05:29:49.931Z,99718.56
2023-05-20T05:34:53.567Z,99716.94
2023-05-20T05:39:56.492Z,99722.63
2023-05-20T05:45:01.187Z,99723.81
2023-05-20T05:50:07.261Z,99719.56
2023-05-20T05:55:12.526Z,99718.56
2023-05-20T06:00:18.158Z,99710.00
2023-05-20T06:05:21.085Z,99702.56
2023-05-20T06:10:24.190Z,99705.16
2023-05-20T06:15:28.589Z,99710.44
2023-05-20T06:20:32.367Z,99714.72
2023-05-20T06:25:36.579Z,99716.03
2023-05-20T06:30:41.703Z,99710.94
2023-05-20T06:35:44.769Z,99707.28
2023-05-20T06:40:48.312Z,99709.69
2023-05-20T06:45:53.150Z,99696.88
2023-05-20T06:51:16.326Z,99696.63
2023-05-20T06:56:22.622Z,99689.34
2023-05-20T07:01:27.071Z,99684.34
2023-05-20T07:06:31.661Z,99681.81
2023-05-20T07:11:35.069Z,99674.09
2023-05-20T07:16:42.788Z,99677.50
2023-05-20T07:21:46.068Z,99674.72
2023-05-20T07:26:49.067Z,99674.44
2023-05-20T07:31:53.596Z,99667.78
2023-05-20T07:36:57.038Z,99659.44
2023-05-20T07:42:00.367Z,99664.88
2023-05-20T07:47:04.851Z,99660.50
2023-05-20T07:52:09.097Z,99662.16
2023-05-20T07:57:12.380Z,99660.41
2023-05-20T08:02:18.751Z,99659.91
2023-05-20T08:07:23.045Z,99645.13
2023-05-20T08:12:31.414Z,99638.31
2023-05-20T08:17:36.276Z,99638.72
2023-05-20T08:22:39.419Z,99644.69
2023-05-20T08:27:42.464Z,99628.53
2023-05-20T08:32:48.760Z,99627.00
2023-05-20T08:37:54.042Z,99624.09
2023-05-20T08:42:59.295Z,99617.47
2023-05-20T08:48:06.051Z,99612.91
2023-05-20T08:53:09.865Z,99602.78
2023-05-20T08:58:12.924Z,99591.53
2023-05-20T09:03:17.239Z,99594.91
2023-05-20T09:08:26.121Z,99594.09
2023-05-20T09:13:30.893Z,99592.69
2023-05-20T09:18:35.209Z,99588.28
2023-05-20T09:23:39.265Z,99578.38
2023-05-20T09:28:42.802Z,99603.94
2023-05-20T09:33:47.109Z,99601.53
2023-05-20T09:38:53.205Z,99599.63
2023-05-20T09:43:56.795Z,99589.91
2023-05-20T09:49:02.280Z,99571.19
2023-05-20T09:54:07.185Z,99567.91
2023-05-20T09:59:11.697Z,99564.28
2023-05-20T10:04:18.470Z,99565.78
2023-05-20T10:09:35.547Z,99559.69
2023-05-20T10:14:51.509Z,99539.47
2023-05-20T10:20:00.610Z,99541.69
2023-05-20T10:25:07.845Z,99543.84
2023-05-20T10:30:17.633Z,99534.94
2023-05-20T10:35:26.415Z,99541.34
2023-05-20T10:40:29.403Z,99555.66
2023-05-20T10:45:32.918Z,99530.13
2023-05-20T10:50:39.620Z,99524.22
2023-05-20T10:55:49.494Z,99526.66
2023-05-20T11:00:55.953Z,99523.22
2023-05-20T11:06:00.367Z,99505.06
2023-05-20T11:11:03.406Z,99519.06
2023-05-20T11:16:09.664Z,99507.31
2023-05-20T11:21:14.048Z,99517.88
2023-05-20T11:26:17.026Z,99505.38
2023-05-20T11:31:20.230Z,99502.38
2023-05-20T11:36:27.746Z,99492.00
2023-05-20T11:41:31.250Z,99494.38
2023-05-20T11:46:42.974Z,99484.22
2023-05-20T11:51:47.300Z,99469.94
2023-05-20T11:56:50.942Z,99463.19
2023-05-20T12:01:54.112Z,99450.47
2023-05-20T12:06:58.413Z,99464.06
2023-05-20T12:12:01.362Z,99457.69
2023-05-20T12:17:04.313Z,99439.34
2023-05-20T12:22:08.662Z,99440.84
2023-05-20T12:27:11.618Z,99442.22
2023-05-20T12:32:14.725Z,99426.78
2023-05-20T12:37:19.156Z,99409.56
2023-05-20T12:42:22.245Z,99410.19
2023-05-20T12:47:25.209Z,99411.34
2023-05-20T12:52:29.640Z,99402.50
2023-05-20T12:57:32.659Z,99400.72
2023-05-20T13:02:37.685Z,99389.25
2023-05-20T13:07:43.512Z,99384.31
2023-05-20T13:12:46.946Z,99399.06
2023-05-20T13:17:50.058Z,99393.38
2023-05-20T13:22:54.398Z,99378.84
2023-05-20T13:27:57.687Z,99385.00
2023-05-20T13:33:00.853Z,99373.56
2023-05-20T13:38:05.136Z,99370.28
2023-05-20T13:43:08.055Z,99361.63
2023-05-20T13:48:11.263Z,99365.41
2023-05-20T13:53:15.629Z,99363.44
2023-05-20T13:58:18.574Z,99358.69
2023-05-20T14:03:22.059Z,99356.06
2023-05-20T14:08:26.736Z,99343.03
2023-05-20T14:13:29.671Z,99341.63
2023-05-20T14:18:32.587Z,99342.56
2023-05-20T14:23:37.004Z,99341.16
2023-05-20T14:28:40.109Z,99320.63
2023-05-20T14:33:43.027Z,99323.47
2023-05-20T14:38:49.361Z,99317.56
2023-05-20T14:43:52.651Z,99321.31
2023-05-20T14:48:56.298Z,99318.41
2023-05-20T14:54:00.947Z,99327.19
2023-05-20T14:59:04.018Z,99312.69
2023-05-20T15:04:06.938Z,99328.63
2023-05-20T15:09:11.816Z,99315.25
2023-05-20T15:14:14.783Z,99311.75
2023-05-20T15:19:17.802Z,99296.09
2023-05-20T15:24:22.708Z,99294.44
2023-05-20T15:29:25.668Z,99285.31
2023-05-20T15:34:28.602Z,99281.47
2023-05-20T15:39:32.907Z,99280.00
2023-05-20T15:44:36.552Z,99282.66
2023-05-20T15:49:39.525Z,99273.03
2023-05-20T15:54:43.857Z,99270.81
2023-05-20T15:59:46.825Z,99275.03
2023-05-20T16:04:49.789Z,99280.09
2023-05-20T16:09:54.163Z,99272.47
2023-05-20T16:14:57.160Z,99264.09
2023-05-20T16:20:00.226Z,99265.31
2023-05-20T16:25:05.219Z,99271.63
2023-05-20T16:30:09.558Z,99262.47
2023-05-20T16:35:13.766Z,99264.78
2023-05-20T16:40:19.897Z,99267.19
2023-05-20T16:45:22.915Z,99260.91
2023-05-20T16:50:26.015Z,99261.38
2023-05-20T16:55:30.688Z,99274.69
2023-05-20T17:00:33.777Z,99269.03
2023-05-20T17:05:36.859Z,99284.34
2023-05-20T17:10:41.138Z,99275.59
2023-05-20T17:15:44.139Z,99270.78
2023-05-20T17:20:47.128Z,99280.94
2023-05-20T17:25:51.381Z,99289.19
2023-05-20T17:30:54.487Z,99280.44
2023-05-20T17:35:57.504Z,99276.69
2023-05-20T17:41:01.850Z,99290.00
2023-05-20T17:46:05.168Z,99298.00
2023-05-20T17:51:08.162Z,99301.19
2023-05-20T17:56:12.560Z,99304.59
2023-05-20T18:01:15.649Z,99309.84
2023-05-20T18:06:18.964Z,99306.97
2023-05-20T18:11:26.147Z,99313.25
2023-05-20T18:16:31.364Z,99309.47
2023-05-20T18:21:34.462Z,99311.28
2023-05-20T18:26:39.488Z,99334.41
2023-05-20T18:31:43.668Z,99332.19
2023-05-20T18:36:47.124Z,99340.78
2023-05-20T18:41:51.703Z,99330.88
2023-05-20T18:46:54.872Z,99336.22
2023-05-20T18:51:58.416Z,99336.13
2023-05-20T18:57:05.267Z,99338.25
2023-05-20T19:02:08.282Z,99354.03
2023-05-20T19:07:12.434Z,99341.16
2023-05-20T19:12:16.876Z,99355.19
2023-05-20T19:17:21.265Z,99352.84
2023-05-20T19:22:24.749Z,99348.72
2023-05-20T19:27:29.543Z,99349.16
2023-05-20T19:32:32.763Z,99353.72
2023-05-20T19:37:35.988Z,99362.91
2023-05-20T19:42:40.303Z,99356.44
2023-05-20T19:47:43.590Z,99366.50
2023-05-20T19:52:46.695Z,99377.00
2023-05-20T19:57:53.375Z,99373.03
2023-05-20T20:02:57.746Z,99367.78
2023-05-20T20:08:00.824Z,99364.44
2023-05-20T20:13:05.226Z,99349.84
2023-05-20T20:18:08.211Z,99358.53
2023-05-20T20:23:12.221Z,99361.28
2023-05-20T20:28:16.788Z,99358.69
2023-05-20T20:33:19.829Z,99353.09
2023-05-20T20:38:22.809Z,99361.72
2023-05-20T20:43:28.932Z,99357.16
2023-05-20T20:48:32.664Z,99354.91
2023-05-20T20:53:35.581Z,99354.97
2023-05-20T20:58:40.342Z,99347.19
2023-05-20T21:03:44.489Z,99343.22
2023-05-20T21:08:47.965Z,99345.47
2023-05-20T21:13:52.247Z,99339.41
2023-05-20T21:18:55.260Z,99336.09
2023-05-20T21:23:58.924Z,99335.91
2023-05-20T21:29:03.249Z,99327.63
2023-05-20T21:34:06.192Z,99330.00
2023-05-20T21:39:09.085Z,99331.97
2023-05-20T21:44:13.372Z,99325.34
2023-05-20T21:49:16.295Z,99326.19
2023-05-20T21:54:19.209Z,99333.31
2023-05-20T21:59:23.576Z,99324.50
2023-05-20T22:04:28.485Z,99319.56
2023-05-20T22:09:31.468Z,99327.88
2023-05-20T22:14:35.766Z,99324.53
2023-05-20T22:19:38.728Z,99319.47
2023-05-20T22:24:41.642Z,99324.28
2023-05-20T22:29:46.223Z,99325.19
2023-05-20T22:34:49.179Z,99313.84
2023-05-20T22:39:52.096Z,99302.72
2023-05-20T22:44:56.424Z,99303.97
2023-05-20T22:50:02.653Z,99305.22
2023-05-20T22:55:06.348Z,99300.97
2023-05-20T23:00:14.083Z,99297.63
2023-05-20T23:05:17.360Z,99297.75
2023-05-20T23:10:20.421Z,99293.38
2023-05-20T23:15:25.702Z,99294.72
2023-05-20T23:20:29.326Z,99285.91
2023-05-20T23:25:32.412Z,99292.56
2023-05-20T23:30:37.493Z,99284.31
2023-05-20T23:35:40.697Z,99277.06
2023-05-20T23:40:43.890Z,99273.28
2023-05-20T23:45:48.189Z,99276.75
2023-05-20T23:50:51.094Z,99272.28
2023-05-20T23:55:54.033Z,99269.13
